Time;durP1;ratioP1;P1;durP2;ratioP2;P2;SDS_P1;SDS_P2;PMS_P1;PMS_P2;Temp;Humidity;BMP_temperature;BMP_pressure;BME280_temperature;BME280_humidity;BME280_pressure;Samples;Min_cycle;Max_cycle;Signal;HPM_P1;HPM_P2
2022/09/14 00:01:26;;;;;;;12.77;11.57;;;21.70;99.90;;;;;;5033237;28;20481;-82
2022/09/14 00:03:55;;;;;;;11.70;9.93;;;21.60;99.90;;;;;;5033757;28;20870;-81
2022/09/14 00:06:22;;;;;;;9.90;8.90;;;21.60;99.90;;;;;;5030136;28;20505;-83
2022/09/14 00:08:51;;;;;;;11.87;9.00;;;21.60;99.90;;;;;;5031836;28;20527;-82
2022/09/14 00:11:19;;;;;;;10.03;8.77;;;21.70;99.90;;;;;;5047474;28;20464;-83
2022/09/14 00:13:46;;;;;;;11.47;9.20;;;21.60;99.90;;;;;;5030858;28;20496;-82
2022/09/14 00:16:19;;;;;;;11.60;10.20;;;21.50;99.90;;;;;;5039553;28;20460;-82
2022/09/14 00:18:50;;;;;;;11.73;9.70;;;21.40;99.90;;;;;;5036899;28;20509;-80
2022/09/14 00:21:17;;;;;;;12.40;11.00;;;21.50;99.90;;;;;;5030612;28;20518;-80
2022/09/14 00:23:44;;;;;;;13.10;11.80;;;21.60;99.90;;;;;;5030426;28;20535;-83
2022/09/14 00:26:14;;;;;;;13.43;12.03;;;21.50;99.90;;;;;;5030158;28;20494;-82
2022/09/14 00:28:52;;;;;;;14.03;12.37;;;21.30;99.90;;;;;;5028455;28;20492;-82
2022/09/14 00:31:20;;;;;;;17.00;12.87;;;21.20;99.90;;;;;;5030034;28;20498;-81
2022/09/14 00:33:48;;;;;;;14.40;11.97;;;21.10;99.90;;;;;;5029523;28;20445;-83
2022/09/14 00:36:17;;;;;;;15.73;13.27;;;21.00;99.90;;;;;;5029550;28;20464;-82
2022/09/14 00:38:45;;;;;;;15.60;12.73;;;21.00;99.90;;;;;;5027019;28;20562;-82
2022/09/14 00:41:20;;;;;;;13.63;12.10;;;21.00;99.90;;;;;;5029558;28;20862;-83
2022/09/14 00:44:00;;;;;;;16.27;14.20;;;21.10;99.90;;;;;;5029529;28;20532;-83
2022/09/14 00:46:39;;;;;;;14.43;12.90;;;21.10;99.90;;;;;;5028391;28;20448;-82
2022/09/14 00:49:19;;;;;;;15.90;13.70;;;21.20;99.90;;;;;;5029438;28;20452;-81
2022/09/14 00:51:56;;;;;;;14.03;12.43;;;21.30;99.90;;;;;;5036438;28;20472;-82
2022/09/14 00:54:23;;;;;;;17.50;14.03;;;21.50;99.90;;;;;;5043307;28;20452;-83
2022/09/14 00:56:50;;;;;;;16.13;13.77;;;21.40;99.90;;;;;;5043902;28;20555;-81
2022/09/14 00:59:24;;;;;;;15.47;13.83;;;21.20;99.90;;;;;;5064779;28;20457;-83
2022/09/14 01:01:50;;;;;;;16.50;14.17;;;21.10;99.90;;;;;;5048161;28;20524;-82
2022/09/14 01:04:17;;;;;;;18.10;15.90;;;21.20;99.90;;;;;;5043286;28;21911;-82
2022/09/14 01:07:00;;;;;;;16.90;14.60;;;21.30;99.90;;;;;;5032401;28;20529;-82
2022/09/14 01:09:45;;;;;;;18.30;16.47;;;21.20;99.90;;;;;;5046713;28;20464;-79
2022/09/14 01:12:23;;;;;;;19.63;16.13;;;21.10;99.90;;;;;;5031678;28;20456;-83
2022/09/14 01:15:18;;;;;;;18.07;16.20;;;21.00;99.90;;;;;;5030678;28;20507;-82
2022/09/14 01:18:07;;;;;;;17.13;14.60;;;20.90;99.90;;;;;;5027478;28;20536;-83
2022/09/14 01:20:42;;;;;;;16.80;14.20;;;21.00;99.90;;;;;;5028745;28;20468;-83
2022/09/14 01:23:32;;;;;;;17.07;14.50;;;21.00;99.90;;;;;;5046154;28;20479;-84
2022/09/14 01:26:14;;;;;;;16.23;14.60;;;21.00;99.90;;;;;;5030522;28;21450;-82
2022/09/14 01:28:57;;;;;;;17.13;15.33;;;21.10;99.90;;;;;;5044958;28;20655;-82
2022/09/14 01:31:33;;;;;;;16.20;13.93;;;21.10;99.90;;;;;;5045736;28;20488;-82
2022/09/14 01:34:15;;;;;;;17.23;14.93;;;21.00;99.90;;;;;;5030719;28;20504;-84
2022/09/14 01:36:46;;;;;;;18.30;15.50;;;21.00;99.90;;;;;;5031796;28;20494;-82
2022/09/14 01:39:15;;;;;;;18.03;16.23;;;21.10;99.90;;;;;;5033596;28;20564;-84
2022/09/14 01:41:44;;;;;;;19.20;16.40;;;21.00;99.90;;;;;;5030866;28;20456;-81
2022/09/14 01:44:16;;;;;;;19.10;17.17;;;21.00;99.90;;;;;;5031348;28;20551;-84
2022/09/14 01:46:46;;;;;;;17.47;15.67;;;21.10;99.90;;;;;;5028902;28;20533;-83
2022/09/14 01:49:18;;;;;;;18.73;15.33;;;21.10;99.90;;;;;;5032018;28;20930;-82
2022/09/14 01:51:51;;;;;;;17.10;15.23;;;20.90;99.90;;;;;;5030612;28;20481;-84
2022/09/14 01:54:44;;;;;;;17.63;15.50;;;20.80;99.90;;;;;;5031448;28;20457;-83
2022/09/14 01:57:20;;;;;;;17.30;12.83;;;20.70;99.90;;;;;;5025594;28;20448;-81
2022/09/14 01:59:49;;;;;;;17.80;14.17;;;20.60;99.90;;;;;;5029491;28;20576;-83
2022/09/14 02:02:26;;;;;;;14.53;12.30;;;20.60;99.90;;;;;;5028007;28;20448;-80
2022/09/14 02:05:02;;;;;;;14.13;12.63;;;20.50;99.90;;;;;;5028434;28;20441;-81
2022/09/14 02:07:29;;;;;;;14.33;12.30;;;20.50;99.90;;;;;;5026949;28;20458;-82
2022/09/14 02:09:55;;;;;;;16.30;12.63;;;20.60;99.90;;;;;;5027821;28;20479;-82
2022/09/14 02:12:22;;;;;;;16.20;12.27;;;20.90;99.90;;;;;;5025879;28;21430;-82
2022/09/14 02:14:51;;;;;;;18.93;13.33;;;21.10;99.90;;;;;;5027296;28;20537;-81
2022/09/14 02:17:18;;;;;;;19.57;14.60;;;21.20;99.90;;;;;;5026953;28;20495;-82
2022/09/14 02:19:55;;;;;;;16.30;12.63;;;21.20;99.90;;;;;;5042680;28;20548;-83
2022/09/14 02:22:23;;;;;;;14.60;12.60;;;21.10;99.90;;;;;;5030886;28;20489;-84
2022/09/14 02:24:51;;;;;;;14.97;12.73;;;21.10;99.90;;;;;;5045837;28;21074;-83
2022/09/14 02:27:17;;;;;;;17.90;14.30;;;21.10;99.90;;;;;;5030165;28;20587;-83
2022/09/14 02:29:44;;;;;;;18.80;13.67;;;21.10;99.90;;;;;;5030162;28;22343;-82
2022/09/14 02:32:28;;;;;;;14.83;12.63;;;20.90;99.90;;;;;;5035652;28;20550;-82
2022/09/14 02:35:12;;;;;;;15.57;12.53;;;20.70;99.90;;;;;;5029011;28;20461;-81
2022/09/14 02:37:54;;;;;;;15.83;13.43;;;20.70;99.90;;;;;;5028785;28;20526;-83
2022/09/14 02:40:36;;;;;;;16.30;13.30;;;20.60;99.90;;;;;;5033479;28;20488;-82
2022/09/14 02:43:03;;;;;;;15.73;13.60;;;20.60;99.90;;;;;;5033341;28;20703;-82
2022/09/14 02:45:47;;;;;;;17.20;14.10;;;20.60;99.90;;;;;;5036875;28;20473;-81
2022/09/14 02:48:40;;;;;;;14.93;12.87;;;20.60;99.90;;;;;;5036999;28;20456;-82
2022/09/14 02:51:45;;;;;;;15.87;13.30;;;20.60;99.90;;;;;;5051534;28;20464;-83
2022/09/14 02:54:27;;;;;;;17.17;13.87;;;20.60;99.90;;;;;;5033152;28;20477;-83
2022/09/14 02:56:54;;;;;;;15.13;13.57;;;20.60;99.90;;;;;;5043521;28;20454;-83
2022/09/14 02:59:20;;;;;;;15.83;14.00;;;20.60;99.90;;;;;;5035790;28;20476;-82
2022/09/14 03:01:47;;;;;;;16.47;13.93;;;20.70;99.90;;;;;;5030047;28;20547;-81
2022/09/14 03:04:13;;;;;;;15.53;13.93;;;20.80;99.90;;;;;;5029031;28;20471;-83
2022/09/14 03:06:40;;;;;;;17.03;14.20;;;20.70;99.90;;;;;;5046758;28;21743;-81
2022/09/14 03:09:06;;;;;;;14.73;12.63;;;20.70;99.90;;;;;;5057742;28;20865;-82
2022/09/14 03:11:33;;;;;;;16.27;12.77;;;20.90;99.90;;;;;;5038681;28;20453;-81
2022/09/14 03:14:00;;;;;;;14.30;12.60;;;20.90;99.90;;;;;;5030297;28;20550;-82
2022/09/14 03:16:26;;;;;;;17.13;13.37;;;20.80;99.90;;;;;;5030037;28;20511;-83
2022/09/14 03:18:53;;;;;;;14.60;12.60;;;20.90;99.90;;;;;;5032000;28;21202;-82
2022/09/14 03:21:19;;;;;;;14.07;12.67;;;21.00;99.90;;;;;;5030928;28;20566;-82
2022/09/14 03:23:48;;;;;;;15.33;12.77;;;20.90;99.90;;;;;;5031421;28;20544;-81
2022/09/14 03:26:18;;;;;;;15.90;14.30;;;20.80;99.90;;;;;;5032365;28;20460;-83
2022/09/14 03:28:49;;;;;;;15.10;13.50;;;20.70;99.90;;;;;;5032884;28;20747;-84
2022/09/14 03:31:16;;;;;;;14.47;12.83;;;20.70;99.90;;;;;;5030211;28;20530;-83
2022/09/14 03:33:43;;;;;;;14.97;12.93;;;20.70;99.90;;;;;;5031635;28;20487;-82
2022/09/14 03:36:12;;;;;;;15.70;13.97;;;20.70;99.90;;;;;;5031097;28;20476;-84
2022/09/14 03:38:42;;;;;;;16.03;14.33;;;20.80;99.90;;;;;;5029834;28;20542;-82
2022/09/14 03:41:10;;;;;;;16.93;15.03;;;20.80;99.90;;;;;;5039380;28;20481;-81
2022/09/14 03:43:37;;;;;;;17.40;15.63;;;20.80;99.90;;;;;;5030804;28;20889;-82
2022/09/14 03:46:05;;;;;;;15.33;13.50;;;20.80;99.90;;;;;;5031877;28;20460;-83
2022/09/14 03:48:32;;;;;;;16.40;13.50;;;20.90;99.90;;;;;;5029275;28;20487;-83
2022/09/14 03:51:01;;;;;;;17.80;13.80;;;20.80;99.90;;;;;;5045161;28;20486;-83
2022/09/14 03:53:28;;;;;;;16.57;14.87;;;21.00;99.90;;;;;;5050635;28;21153;-82
2022/09/14 03:55:54;;;;;;;14.77;13.17;;;21.00;99.90;;;;;;5033887;28;20488;-83
2022/09/14 03:58:22;;;;;;;15.00;13.27;;;21.00;99.90;;;;;;5035145;28;20507;-83
2022/09/14 04:00:49;;;;;;;14.63;13.13;;;20.90;99.90;;;;;;5038993;28;21021;-80
2022/09/14 04:03:15;;;;;;;16.83;14.90;;;20.80;99.90;;;;;;5039126;28;20445;-83
2022/09/14 04:05:44;;;;;;;18.67;15.67;;;20.80;99.90;;;;;;5041007;28;20457;-80
2022/09/14 04:08:10;;;;;;;17.77;15.87;;;20.80;99.90;;;;;;5037364;28;20498;-83
2022/09/14 04:10:40;;;;;;;15.70;14.10;;;20.80;99.90;;;;;;5032008;28;20480;-80
2022/09/14 04:13:06;;;;;;;19.20;15.53;;;20.80;99.90;;;;;;5037567;28;20499;-81
2022/09/14 04:15:33;;;;;;;16.87;15.00;;;20.80;99.90;;;;;;5030987;28;20509;-81
2022/09/14 04:18:00;;;;;;;17.53;15.70;;;20.70;99.90;;;;;;5028650;28;20495;-81
2022/09/14 04:20:26;;;;;;;18.10;15.70;;;20.80;99.90;;;;;;5030573;28;20512;-83
2022/09/14 04:22:53;;;;;;;17.23;15.40;;;20.70;99.90;;;;;;5029633;28;20487;-81
2022/09/14 04:25:22;;;;;;;16.67;14.97;;;20.70;99.90;;;;;;5032624;28;20504;-83
2022/09/14 04:27:49;;;;;;;16.13;14.27;;;20.70;99.90;;;;;;5041049;28;20472;-82
2022/09/14 04:30:29;;;;;;;18.90;16.73;;;20.60;99.90;;;;;;5033439;28;20480;-82
2022/09/14 04:32:56;;;;;;;18.57;16.20;;;20.70;99.90;;;;;;5034460;28;20452;-82
2022/09/14 04:35:22;;;;;;;17.67;15.77;;;20.70;99.90;;;;;;5029690;28;20544;-81
2022/09/14 04:37:49;;;;;;;18.37;16.47;;;20.90;99.90;;;;;;5028039;28;20464;-82
2022/09/14 04:40:16;;;;;;;18.87;15.27;;;20.80;99.90;;;;;;5027654;28;20508;-83
2022/09/14 04:42:42;;;;;;;16.60;14.30;;;20.70;99.90;;;;;;5029182;28;20452;-82
2022/09/14 04:45:09;;;;;;;17.80;13.83;;;20.70;99.90;;;;;;5029986;28;20551;-84
2022/09/14 04:47:36;;;;;;;17.60;15.70;;;20.70;99.90;;;;;;5028826;28;20556;-81
2022/09/14 04:50:03;;;;;;;17.70;15.80;;;20.60;99.90;;;;;;5044939;28;20488;-83
2022/09/14 04:52:29;;;;;;;16.97;15.27;;;20.60;99.90;;;;;;5031177;28;20507;-83
2022/09/14 04:54:56;;;;;;;20.20;16.40;;;20.70;99.90;;;;;;5035873;28;20465;-83
2022/09/14 04:57:23;;;;;;;18.10;15.77;;;20.80;99.90;;;;;;5037253;28;20515;-83
2022/09/14 04:59:49;;;;;;;16.53;14.73;;;20.70;99.90;;;;;;5043193;28;20483;-83
2022/09/14 05:02:16;;;;;;;20.17;17.30;;;20.70;99.90;;;;;;5040565;28;20480;-81
2022/09/14 05:04:43;;;;;;;16.70;14.80;;;20.80;99.90;;;;;;5038807;28;20465;-82
2022/09/14 05:07:09;;;;;;;20.17;17.77;;;21.10;99.90;;;;;;5039212;28;20473;-83
2022/09/14 05:09:36;;;;;;;17.60;14.50;;;20.90;99.90;;;;;;5038600;28;21295;-83
2022/09/14 05:12:02;;;;;;;17.10;15.00;;;20.80;99.90;;;;;;5032741;28;20545;-81
2022/09/14 05:14:29;;;;;;;18.33;15.30;;;20.70;99.90;;;;;;5030857;28;20542;-83
2022/09/14 05:17:00;;;;;;;17.67;15.87;;;20.70;99.90;;;;;;5030624;28;20488;-84
2022/09/14 05:19:26;;;;;;;15.83;14.10;;;20.70;99.90;;;;;;5030538;28;20491;-82
2022/09/14 05:21:53;;;;;;;18.40;15.40;;;20.70;99.90;;;;;;5036380;28;20448;-83
2022/09/14 05:24:19;;;;;;;21.47;16.87;;;20.80;99.90;;;;;;5028685;28;20516;-83
2022/09/14 05:26:46;;;;;;;19.70;14.80;;;20.80;99.90;;;;;;5027899;28;20557;-83
2022/09/14 05:29:15;;;;;;;16.90;14.70;;;20.80;99.90;;;;;;5030829;28;20587;-84
2022/09/14 05:31:42;;;;;;;19.70;16.90;;;20.70;99.90;;;;;;5028157;28;20548;-84
2022/09/14 05:34:10;;;;;;;19.57;15.63;;;20.70;99.90;;;;;;5028888;28;20488;-83
2022/09/14 05:36:38;;;;;;;19.93;16.10;;;20.70;99.90;;;;;;5028323;28;20873;-82
2022/09/14 05:39:05;;;;;;;22.30;16.03;;;20.90;99.90;;;;;;5029869;28;20605;-81
2022/09/14 05:41:32;;;;;;;20.20;17.97;;;20.70;99.90;;;;;;5033714;28;20491;-81
2022/09/14 05:43:59;;;;;;;19.27;15.63;;;20.70;99.90;;;;;;5045375;28;20491;-82
2022/09/14 05:46:25;;;;;;;14.53;12.43;;;20.70;99.90;;;;;;5028252;28;20535;-82
2022/09/14 05:48:52;;;;;;;11.97;10.53;;;20.70;99.90;;;;;;5029125;28;20490;-82
2022/09/14 05:51:21;;;;;;;10.50;8.77;;;20.60;99.90;;;;;;5028275;28;20983;-82
2022/09/14 05:53:49;;;;;;;9.33;8.20;;;20.60;99.90;;;;;;5028210;28;20476;-84
2022/09/14 05:56:17;;;;;;;14.63;9.53;;;20.60;99.90;;;;;;5028521;28;20456;-83
2022/09/14 05:58:44;;;;;;;8.93;8.00;;;20.60;99.90;;;;;;5026084;28;20453;-82
2022/09/14 06:01:22;;;;;;;9.90;8.80;;;20.60;99.90;;;;;;5033065;28;20515;-83
2022/09/14 06:03:52;;;;;;;11.40;9.93;;;20.50;99.90;;;;;;5035849;28;20457;-83
2022/09/14 06:06:20;;;;;;;9.80;8.80;;;20.50;99.90;;;;;;5029469;28;20831;-84
2022/09/14 06:08:51;;;;;;;9.80;8.67;;;20.50;99.90;;;;;;5028882;28;20583;-83
2022/09/14 06:11:20;;;;;;;10.87;9.77;;;20.50;99.90;;;;;;5031237;28;20589;-83
2022/09/14 06:13:48;;;;;;;7.93;7.00;;;20.50;99.90;;;;;;5027088;28;20465;-84
2022/09/14 06:16:17;;;;;;;8.40;7.23;;;20.50;99.90;;;;;;5027636;28;20574;-83
2022/09/14 06:18:45;;;;;;;9.03;7.80;;;20.40;99.90;;;;;;5028493;28;20487;-83
2022/09/14 06:21:14;;;;;;;8.90;7.30;;;20.40;99.90;;;;;;5026030;28;20508;-83
2022/09/14 06:23:41;;;;;;;7.27;6.57;;;20.40;99.90;;;;;;5030265;28;20452;-82
2022/09/14 06:26:08;;;;;;;7.07;6.20;;;20.40;99.90;;;;;;5028264;28;20514;-84
2022/09/14 06:28:35;;;;;;;4.93;4.27;;;20.30;99.90;;;;;;5027922;28;20476;-84
2022/09/14 06:31:03;;;;;;;5.47;4.90;;;20.30;99.90;;;;;;5030869;28;20473;-84
2022/09/14 06:33:30;;;;;;;4.00;3.70;;;20.20;99.90;;;;;;5025944;28;21167;-85
2022/09/14 06:36:04;;;;;;;6.03;5.40;;;20.20;99.90;;;;;;5043594;28;20556;-82
2022/09/14 06:38:31;;;;;;;4.43;3.80;;;20.20;99.90;;;;;;5027056;28;20464;-83
2022/09/14 06:41:01;;;;;;;3.47;3.17;;;20.10;99.90;;;;;;5031273;28;21304;-82
2022/09/14 06:43:31;;;;;;;3.50;3.20;;;20.10;99.90;;;;;;5026606;28;20558;-80
2022/09/14 06:46:18;;;;;;;4.57;3.63;;;20.10;99.90;;;;;;5029617;28;20476;-82
2022/09/14 06:49:07;;;;;;;3.70;2.93;;;20.10;99.90;;;;;;5030291;28;20548;-83
2022/09/14 06:51:41;;;;;;;3.07;2.77;;;20.10;99.90;;;;;;5029849;28;20520;-82
2022/09/14 06:54:11;;;;;;;2.70;2.23;;;20.10;99.90;;;;;;5025940;28;20456;-83
2022/09/14 06:56:39;;;;;;;2.30;2.13;;;20.10;99.90;;;;;;5026723;28;20453;-81
2022/09/14 06:59:08;;;;;;;1.80;1.70;;;20.20;99.90;;;;;;5028262;28;20498;-81
2022/09/14 07:01:35;;;;;;;2.77;2.50;;;20.10;99.90;;;;;;5028176;28;20574;-82
2022/09/14 07:04:04;;;;;;;2.07;1.90;;;20.10;99.90;;;;;;5030890;28;20504;-82
2022/09/14 07:06:40;;;;;;;2.43;1.97;;;20.00;99.90;;;;;;5032047;28;20543;-83
2022/09/14 07:09:06;;;;;;;1.80;1.70;;;20.00;99.90;;;;;;5032029;28;21000;-81
2022/09/14 07:11:33;;;;;;;2.17;1.90;;;20.00;99.90;;;;;;5031673;28;20531;-83
2022/09/14 07:14:01;;;;;;;3.30;1.97;;;19.90;99.90;;;;;;5046247;28;20501;-82
2022/09/14 07:16:29;;;;;;;2.37;2.17;;;19.90;99.90;;;;;;5031624;28;20496;-82
2022/09/14 07:18:59;;;;;;;2.53;2.33;;;19.90;99.90;;;;;;5033065;28;20455;-83
2022/09/14 07:21:26;;;;;;;2.27;2.07;;;20.20;99.90;;;;;;5036455;28;20504;-82
2022/09/14 07:23:54;;;;;;;2.63;2.33;;;20.20;99.90;;;;;;5035467;28;21888;-84
2022/09/14 07:26:23;;;;;;;2.70;2.50;;;20.20;99.90;;;;;;5052448;28;20457;-82
2022/09/14 07:28:56;;;;;;;2.50;2.30;;;20.20;99.90;;;;;;5038620;28;20502;-83
2022/09/14 07:31:44;;;;;;;3.80;2.67;;;19.90;99.90;;;;;;5039488;28;20522;-83
2022/09/14 07:34:13;;;;;;;2.50;2.30;;;19.60;99.90;;;;;;5052611;28;20480;-83
2022/09/14 07:36:40;;;;;;;2.67;2.47;;;19.50;99.90;;;;;;5035144;28;20534;-82
2022/09/14 07:39:10;;;;;;;2.10;1.90;;;19.50;99.90;;;;;;5028973;28;20459;-80
2022/09/14 07:41:37;;;;;;;2.47;2.27;;;19.50;99.90;;;;;;5030815;28;20522;-83
2022/09/14 07:44:06;;;;;;;4.40;2.40;;;19.60;99.90;;;;;;5030601;28;20465;-82
2022/09/14 07:46:38;;;;;;;3.00;2.80;;;19.70;99.90;;;;;;5029763;28;20484;-81
2022/09/14 07:49:05;;;;;;;3.53;3.20;;;19.90;99.90;;;;;;5036692;28;20437;-83
2022/09/14 07:51:35;;;;;;;3.40;3.10;;;19.90;99.90;;;;;;5035369;28;20480;-83
2022/09/14 07:54:03;;;;;;;3.17;2.97;;;20.00;99.90;;;;;;5049256;28;20456;-81
2022/09/14 07:56:31;;;;;;;30.53;26.60;;;20.00;99.90;;;;;;5041709;28;20476;-82
2022/09/14 07:58:58;;;;;;;3.33;3.03;;;19.90;99.90;;;;;;5035812;28;20487;-80
2022/09/14 08:01:45;;;;;;;4.70;4.30;;;19.90;99.90;;;;;;5035547;28;20483;-82
2022/09/14 08:04:12;;;;;;;4.40;4.00;;;20.10;99.90;;;;;;5035137;28;20489;-83
2022/09/14 08:06:39;;;;;;;4.43;4.03;;;20.20;99.90;;;;;;5047595;28;20483;-83
2022/09/14 08:09:10;;;;;;;4.50;4.10;;;20.10;99.90;;;;;;5034567;28;20465;-82
2022/09/14 08:11:37;;;;;;;5.43;5.03;;;19.90;99.90;;;;;;5031929;28;20949;-83
2022/09/14 08:14:09;;;;;;;6.10;5.50;;;19.90;99.90;;;;;;5035359;28;20448;-84
2022/09/14 08:16:37;;;;;;;6.60;6.00;;;19.90;99.90;;;;;;5031417;28;20529;-84
2022/09/14 08:19:06;;;;;;;6.87;6.27;;;20.10;99.90;;;;;;5041224;28;20465;-82
2022/09/14 08:21:34;;;;;;;7.07;6.30;;;20.00;99.90;;;;;;5037540;28;20854;-84
2022/09/14 08:24:03;;;;;;;8.40;7.70;;;19.90;99.90;;;;;;5036260;28;20453;-81
2022/09/14 08:26:30;;;;;;;8.60;7.80;;;20.20;99.90;;;;;;5034321;28;20508;-81
2022/09/14 08:29:00;;;;;;;8.70;7.90;;;20.20;99.90;;;;;;5052194;28;20509;-81
2022/09/14 08:31:27;;;;;;;7.67;6.73;;;20.20;99.90;;;;;;5034856;28;20494;-83
2022/09/14 08:34:00;;;;;;;9.97;7.53;;;20.00;99.90;;;;;;5036374;28;20455;-81
2022/09/14 08:36:30;;;;;;;8.97;8.07;;;20.00;99.90;;;;;;5033943;28;20511;-81
2022/09/14 08:38:57;;;;;;;7.70;7.00;;;20.00;99.90;;;;;;5033971;28;20558;-82
2022/09/14 08:41:50;;;;;;;7.13;6.53;;;20.00;99.90;;;;;;5050827;28;20497;-82
2022/09/14 08:44:29;;;;;;;7.27;6.70;;;20.30;99.90;;;;;;5035083;28;20508;-81
2022/09/14 08:47:01;;;;;;;7.77;7.10;;;20.20;99.90;;;;;;5035360;28;20567;-82
2022/09/14 08:49:41;;;;;;;7.50;6.80;;;20.20;99.90;;;;;;5039748;28;20472;-82
2022/09/14 08:52:27;;;;;;;7.50;6.90;;;20.20;99.90;;;;;;5037410;28;20765;-83
2022/09/14 08:54:59;;;;;;;7.83;7.20;;;20.00;99.90;;;;;;5046274;28;20495;-82
2022/09/14 08:57:50;;;;;;;8.13;7.33;;;19.90;99.90;;;;;;5044556;28;21163;-82
2022/09/14 09:00:32;;;;;;;9.23;8.33;;;19.80;99.90;;;;;;5037247;28;20476;-81
2022/09/14 09:03:18;;;;;;;8.50;7.80;;;19.80;99.90;;;;;;5034853;28;20806;-82
2022/09/14 09:05:53;;;;;;;11.83;8.53;;;19.70;99.90;;;;;;5035120;28;20507;-82
2022/09/14 09:08:38;;;;;;;9.30;8.50;;;19.70;99.90;;;;;;5032920;28;20513;-82
2022/09/14 09:11:10;;;;;;;9.20;8.30;;;19.70;99.90;;;;;;5030473;28;20526;-83
2022/09/14 09:13:39;;;;;;;10.03;9.13;;;19.70;99.90;;;;;;5031158;28;20571;-83
2022/09/14 09:16:08;;;;;;;8.47;7.70;;;19.70;99.90;;;;;;5036702;28;21029;-82
2022/09/14 09:18:41;;;;;;;8.50;7.70;;;19.70;99.90;;;;;;5048323;28;20467;-84
2022/09/14 09:21:22;;;;;;;9.00;8.20;;;19.70;99.90;;;;;;5037310;28;20484;-83
2022/09/14 09:23:49;;;;;;;9.10;8.30;;;19.60;99.90;;;;;;5037341;28;20482;-81
2022/09/14 09:26:27;;;;;;;9.03;8.23;;;19.70;99.90;;;;;;5032645;28;20461;-82
2022/09/14 09:28:58;;;;;;;9.10;8.30;;;19.70;99.90;;;;;;5031230;28;21079;-81
2022/09/14 09:31:55;;;;;;;9.50;8.63;;;19.70;99.90;;;;;;5048423;28;21825;-82
2022/09/14 09:34:26;;;;;;;10.43;9.43;;;19.90;99.90;;;;;;5032333;28;20484;-83
2022/09/14 09:36:54;;;;;;;10.20;9.30;;;20.00;99.90;;;;;;5032433;28;21212;-83
2022/09/14 09:39:22;;;;;;;11.03;10.00;;;20.10;99.90;;;;;;5035350;28;20548;-82
2022/09/14 09:42:04;;;;;;;12.13;10.93;;;20.20;99.90;;;;;;5032465;28;21204;-82
2022/09/14 09:44:58;;;;;;;10.80;9.80;;;20.20;99.90;;;;;;5034257;28;20453;-83
2022/09/14 09:47:38;;;;;;;10.30;9.20;;;20.00;99.90;;;;;;5034253;28;20444;-81
2022/09/14 09:50:17;;;;;;;15.70;12.90;;;19.90;99.90;;;;;;5033941;28;20477;-82
2022/09/14 09:52:54;;;;;;;11.60;9.87;;;19.80;99.90;;;;;;5031533;28;21068;-83
2022/09/14 09:55:25;;;;;;;11.90;10.87;;;19.80;99.90;;;;;;5033242;28;20506;-82
2022/09/14 09:57:53;;;;;;;11.10;10.00;;;20.30;99.90;;;;;;5031550;28;20484;-84
2022/09/14 10:00:25;;;;;;;10.77;9.77;;;20.00;99.90;;;;;;5029816;28;20480;-83
2022/09/14 10:02:53;;;;;;;9.00;8.20;;;20.10;99.90;;;;;;5031537;28;20499;-83
2022/09/14 10:05:27;;;;;;;11.30;8.63;;;20.20;99.90;;;;;;5033293;28;20452;-84
2022/09/14 10:07:59;;;;;;;8.73;6.60;;;20.20;99.90;;;;;;5029257;28;20448;-83
2022/09/14 10:10:46;;;;;;;7.00;6.30;;;20.20;99.90;;;;;;5044927;28;20557;-81
2022/09/14 10:13:17;;;;;;;7.57;6.60;;;20.40;99.90;;;;;;5032613;28;20464;-81
2022/09/14 10:15:45;;;;;;;8.77;7.97;;;20.40;99.90;;;;;;5032502;28;20550;-82
2022/09/14 10:18:12;;;;;;;9.20;8.30;;;20.30;99.90;;;;;;5032490;28;20463;-80
2022/09/14 10:21:04;;;;;;;9.00;7.87;;;20.10;99.90;;;;;;5031470;28;20906;-80
2022/09/14 10:23:37;;;;;;;6.87;6.27;;;20.10;99.90;;;;;;5031189;28;20460;-83
2022/09/14 10:26:12;;;;;;;8.93;8.13;;;20.10;99.90;;;;;;5031854;28;20481;-82
2022/09/14 10:28:45;;;;;;;8.07;7.37;;;20.00;99.90;;;;;;5032301;28;20444;-79
2022/09/14 10:31:17;;;;;;;10.40;7.00;;;20.00;99.90;;;;;;5033897;28;20492;-83
2022/09/14 10:33:50;;;;;;;8.67;7.83;;;19.90;99.90;;;;;;5046810;28;20458;-84
2022/09/14 10:36:23;;;;;;;8.80;7.47;;;19.90;99.90;;;;;;5046894;28;20457;-84
2022/09/14 10:38:57;;;;;;;7.90;7.20;;;19.90;99.90;;;;;;5037374;28;20456;-82
2022/09/14 10:41:34;;;;;;;7.87;7.17;;;20.00;99.90;;;;;;5038875;28;20542;-82
2022/09/14 10:44:12;;;;;;;12.33;8.30;;;20.00;99.90;;;;;;5032140;28;20584;-84
2022/09/14 10:47:08;;;;;;;9.60;7.90;;;20.10;99.90;;;;;;5035159;28;20464;-83
2022/09/14 10:49:55;;;;;;;8.10;7.40;;;20.10;99.90;;;;;;5035771;28;21123;-83
2022/09/14 10:52:31;;;;;;;9.23;6.83;;;20.00;99.90;;;;;;5033381;28;20516;-83
2022/09/14 10:55:30;;;;;;;6.40;5.90;;;20.00;99.90;;;;;;5035165;28;20490;-82
2022/09/14 10:58:02;;;;;;;7.57;6.87;;;19.90;99.90;;;;;;5037384;28;20474;-84
2022/09/14 11:00:35;;;;;;;8.00;7.20;;;19.80;99.90;;;;;;5039945;28;20525;-82
2022/09/14 11:03:26;;;;;;;8.43;7.57;;;19.80;99.90;;;;;;5038983;28;20448;-83
2022/09/14 11:05:53;;;;;;;8.37;7.67;;;19.80;99.90;;;;;;5038958;28;20456;-83
2022/09/14 11:08:34;;;;;;;10.30;8.63;;;19.80;99.90;;;;;;5037377;28;20534;-82
2022/09/14 11:11:28;;;;;;;8.17;7.47;;;20.00;99.90;;;;;;5035182;28;20469;-82
2022/09/14 11:14:20;;;;;;;8.63;7.13;;;19.90;99.90;;;;;;5040168;28;21092;-84
2022/09/14 11:17:17;;;;;;;7.50;6.80;;;19.90;99.90;;;;;;5034508;28;21085;-83
2022/09/14 11:20:06;;;;;;;8.60;7.80;;;20.00;99.90;;;;;;5051416;28;20503;-82
2022/09/14 11:22:41;;;;;;;8.50;7.80;;;20.40;99.90;;;;;;5039684;28;20857;-83
2022/09/14 11:25:12;;;;;;;8.83;8.10;;;20.30;99.90;;;;;;5038218;28;20481;-83
2022/09/14 11:27:51;;;;;;;10.33;9.43;;;20.10;99.90;;;;;;5036824;28;20448;-82
2022/09/14 11:30:20;;;;;;;10.77;9.47;;;20.00;99.90;;;;;;5038989;28;20952;-84
2022/09/14 11:33:10;;;;;;;10.00;9.20;;;19.90;99.90;;;;;;5055713;28;20550;-81
2022/09/14 11:35:43;;;;;;;9.53;8.77;;;19.80;99.90;;;;;;5038385;28;20456;-83
2022/09/14 11:38:19;;;;;;;9.17;8.33;;;20.10;99.90;;;;;;5036524;28;20496;-83
2022/09/14 11:40:50;;;;;;;8.33;7.60;;;20.30;99.90;;;;;;5037161;28;20583;-81
2022/09/14 11:43:36;;;;;;;9.47;8.67;;;20.20;99.90;;;;;;5038053;28;20452;-83
2022/09/14 11:46:24;;;;;;;7.57;6.90;;;20.20;99.90;;;;;;5036007;28;20452;-81
2022/09/14 11:49:00;;;;;;;6.97;6.37;;;20.30;99.90;;;;;;5041915;28;20428;-83
2022/09/14 11:51:31;;;;;;;7.63;6.90;;;20.70;99.90;;;;;;5043646;28;20514;-81
2022/09/14 11:53:58;;;;;;;6.50;5.90;;;20.50;99.90;;;;;;5046069;28;20494;-79
2022/09/14 11:56:26;;;;;;;8.13;6.37;;;20.70;99.90;;;;;;5048333;28;20466;-80
2022/09/14 11:58:56;;;;;;;6.77;6.17;;;20.60;99.90;;;;;;5046848;28;20675;-82
2022/09/14 12:01:38;;;;;;;6.50;5.90;;;20.40;99.90;;;;;;5040872;28;20492;-82
2022/09/14 12:04:09;;;;;;;6.53;5.93;;;20.60;99.90;;;;;;5043652;28;20449;-82
2022/09/14 12:06:35;;;;;;;6.20;5.70;;;20.50;99.90;;;;;;5041169;28;20456;-82
2022/09/14 12:09:21;;;;;;;6.97;6.37;;;20.30;99.90;;;;;;5044200;28;20449;-83
2022/09/14 12:11:58;;;;;;;6.97;5.73;;;20.20;99.90;;;;;;5048111;28;20995;-82
2022/09/14 12:14:30;;;;;;;8.77;6.70;;;20.40;99.90;;;;;;5062218;28;20456;-83
2022/09/14 12:17:31;;;;;;;7.40;6.73;;;20.70;99.90;;;;;;5056100;28;20465;-84
2022/09/14 12:20:41;;;;;;;8.40;7.70;;;20.70;99.90;;;;;;5041063;28;21002;-84
2022/09/14 12:23:38;;;;;;;9.27;8.47;;;21.00;99.90;;;;;;5020332;28;20463;-82
2022/09/14 12:26:04;;;;;;;8.33;7.63;;;20.90;99.90;;;;;;5039270;28;20461;-82
2022/09/14 12:28:34;;;;;;;9.93;8.27;;;20.60;99.90;;;;;;5039949;28;20519;-83
2022/09/14 12:31:03;;;;;;;9.53;8.53;;;20.50;99.90;;;;;;5041829;28;20554;-83
2022/09/14 12:33:30;;;;;;;9.23;8.40;;;20.70;99.90;;;;;;5044753;28;20554;-82
2022/09/14 12:36:19;;;;;;;9.60;8.70;;;20.50;99.90;;;;;;5038627;28;21709;-83
2022/09/14 12:38:49;;;;;;;10.40;9.50;;;20.30;99.90;;;;;;5042021;28;20990;-81
2022/09/14 12:41:18;;;;;;;10.67;9.77;;;20.20;99.90;;;;;;5040552;28;20515;-84
2022/09/14 12:43:46;;;;;;;11.10;10.10;;;20.20;99.90;;;;;;5040207;28;22254;-84
2022/09/14 12:46:18;;;;;;;11.43;10.33;;;20.10;99.90;;;;;;5040912;28;20578;-82
2022/09/14 12:48:45;;;;;;;11.70;9.90;;;20.10;99.90;;;;;;5043498;28;20436;-84
2022/09/14 12:51:30;;;;;;;10.70;9.80;;;20.00;99.90;;;;;;5045719;28;20527;-84
2022/09/14 12:54:27;;;;;;;11.13;10.03;;;20.00;99.90;;;;;;5045501;28;20456;-83
2022/09/14 12:57:03;;;;;;;9.60;8.80;;;20.50;99.90;;;;;;5039123;28;20543;-83
2022/09/14 12:59:47;;;;;;;8.83;8.13;;;20.40;99.90;;;;;;5041405;28;20471;-82
2022/09/14 13:02:26;;;;;;;7.70;7.00;;;20.10;99.90;;;;;;5040879;28;20511;-82
2022/09/14 13:04:55;;;;;;;8.20;7.60;;;20.00;99.90;;;;;;5052173;28;20447;-82